sensor_id;sensor_type;location;lat;lon;timestamp;pressure;altitude;pressure_sealevel;temperature;humidity
70072;BME280;57434;42.794;23.302;2023-06-26T06:33:26;95254.34;;;19.72;74.19
70072;BME280;57434;42.794;23.302;2023-06-26T06:34:28;95388.13;;;20.59;74.05
70072;BME280;57434;42.794;23.302;2023-06-26T06:35:30;95434.34;;;20.80;74.55
70072;BME280;57434;42.794;23.302;2023-06-26T06:36:32;95342.66;;;20.38;74.96
70072;BME280;57434;42.794;23.302;2023-06-26T06:37:33;95267.88;;;19.94;75.76
70072;BME280;57434;42.794;23.302;2023-06-26T06:38:35;95418.63;;;21.02;75.67
70072;BME280;57434;42.794;23.302;2023-06-26T06:39:37;95415.72;;;20.94;75.08
70072;BME280;57434;42.794;23.302;2023-06-26T06:40:39;95331.03;;;20.21;75.91
70072;BME280;57434;42.794;23.302;2023-06-26T06:41:41;95426.75;;;20.98;76.61
70072;BME280;57434;42.794;23.302;2023-06-26T06:42:43;95302.75;;;20.31;75.65
70072;BME280;57434;42.794;23.302;2023-06-26T06:43:45;95420.28;;;20.90;76.06
70072;BME280;57434;42.794;23.302;2023-06-26T06:44:47;95428.34;;;21.22;75.97
70072;BME280;57434;42.794;23.302;2023-06-26T06:45:48;95425.69;;;21.09;73.75
70072;BME280;57434;42.794;23.302;2023-06-26T06:46:50;95431.38;;;21.16;74.02
70072;BME280;57434;42.794;23.302;2023-06-26T06:47:52;95415.78;;;21.25;73.25
70072;BME280;57434;42.794;23.302;2023-06-26T06:48:55;95430.63;;;21.23;73.73
70072;BME280;57434;42.794;23.302;2023-06-26T06:49:57;95427.03;;;21.15;74.77
70072;BME280;57434;42.794;23.302;2023-06-26T06:50:59;95418.84;;;21.12;74.91
70072;BME280;57434;42.794;23.302;2023-06-26T06:52:01;95398.03;;;20.88;74.83
70072;BME280;57434;42.794;23.302;2023-06-26T06:53:03;95379.03;;;20.83;74.87
70072;BME280;57434;42.794;23.302;2023-06-26T06:54:04;95421.53;;;21.40;74.79
70072;BME280;57434;42.794;23.302;2023-06-26T06:55:07;95305.47;;;20.74;74.62
70072;BME280;57434;42.794;23.302;2023-06-26T06:56:09;95377.94;;;21.40;74.52
70072;BME280;57434;42.794;23.302;2023-06-26T06:57:11;95382.09;;;21.61;72.19
70072;BME280;57434;42.794;23.302;2023-06-26T06:58:12;95424.66;;;22.05;73.20
70072;BME280;57434;42.794;23.302;2023-06-26T06:59:14;95290.19;;;21.48;71.07
70072;BME280;57434;42.794;23.302;2023-06-26T07:00:16;95378.75;;;22.18;70.32
70072;BME280;57434;42.794;23.302;2023-06-26T07:01:18;95405.28;;;22.51;70.30
70072;BME280;57434;42.794;23.302;2023-06-26T07:02:20;95303.66;;;21.78;69.05
70072;BME280;57434;42.794;23.302;2023-06-26T07:03:22;95424.13;;;22.54;67.52
70072;BME280;57434;42.794;23.302;2023-06-26T07:04:24;95421.53;;;22.81;68.05
70072;BME280;57434;42.794;23.302;2023-06-26T07:05:26;95384.13;;;22.47;66.93
70072;BME280;57434;42.794;23.302;2023-06-26T07:06:28;95431.00;;;22.91;66.24
70072;BME280;57434;42.794;23.302;2023-06-26T07:07:31;95400.22;;;22.75;65.54
70072;BME280;57434;42.794;23.302;2023-06-26T07:08:33;95421.38;;;22.79;64.91
70072;BME280;57434;42.794;23.302;2023-06-26T07:09:38;95414.16;;;22.71;64.71
70072;BME280;57434;42.794;23.302;2023-06-26T07:10:40;95435.31;;;22.68;65.03
70072;BME280;57434;42.794;23.302;2023-06-26T07:11:42;95432.69;;;22.62;66.56
70072;BME280;57434;42.794;23.302;2023-06-26T07:12:44;95426.66;;;22.43;67.52
70072;BME280;57434;42.794;23.302;2023-06-26T07:13:46;95399.72;;;21.98;66.53
70072;BME280;57434;42.794;23.302;2023-06-26T07:14:48;95421.97;;;22.22;67.63
70072;BME280;57434;42.794;23.302;2023-06-26T07:15:49;95362.69;;;21.68;66.58
70072;BME280;57434;42.794;23.302;2023-06-26T07:16:51;95422.59;;;21.75;67.86
70072;BME280;57434;42.794;23.302;2023-06-26T07:17:53;95427.56;;;21.98;68.65
70072;BME280;57434;42.794;23.302;2023-06-26T07:18:55;95339.50;;;21.41;68.02
70072;BME280;57434;42.794;23.302;2023-06-26T07:19:58;95398.44;;;21.76;67.34
70072;BME280;57434;42.794;23.302;2023-06-26T07:21:00;95277.94;;;21.15;68.54
70072;BME280;57434;42.794;23.302;2023-06-26T07:22:02;95402.06;;;22.40;66.29
70072;BME280;57434;42.794;23.302;2023-06-26T07:23:04;95416.22;;;22.78;63.92
70072;BME280;57434;42.794;23.302;2023-06-26T07:24:06;95408.34;;;22.86;64.81
70072;BME280;57434;42.794;23.302;2023-06-26T07:25:08;95419.34;;;22.97;63.34
70072;BME280;57434;42.794;23.302;2023-06-26T07:26:10;95403.91;;;22.92;62.30
70072;BME280;57434;42.794;23.302;2023-06-26T07:27:12;95267.03;;;22.32;63.75
70072;BME280;57434;42.794;23.302;2023-06-26T07:28:13;95382.56;;;23.18;59.70
70072;BME280;57434;42.794;23.302;2023-06-26T07:29:15;95292.31;;;22.43;60.56
70072;BME280;57434;42.794;23.302;2023-06-26T07:30:17;95390.38;;;23.18;61.22
70072;BME280;57434;42.794;23.302;2023-06-26T07:31:19;95415.81;;;23.39;61.49
70072;BME280;57434;42.794;23.302;2023-06-26T07:32:21;95405.31;;;23.09;61.71
70072;BME280;57434;42.794;23.302;2023-06-26T07:33:23;95397.97;;;22.98;62.01
70072;BME280;57434;42.794;23.302;2023-06-26T07:34:25;95404.69;;;23.18;62.76
70072;BME280;57434;42.794;23.302;2023-06-26T07:35:26;95397.38;;;23.00;62.55
70072;BME280;57434;42.794;23.302;2023-06-26T07:36:28;95306.94;;;22.47;62.74
70072;BME280;57434;42.794;23.302;2023-06-26T07:37:30;95413.75;;;23.07;62.97
70072;BME280;57434;42.794;23.302;2023-06-26T07:38:32;95414.38;;;22.98;63.02
70072;BME280;57434;42.794;23.302;2023-06-26T07:39:33;95416.69;;;23.24;62.07
70072;BME280;57434;42.794;23.302;2023-06-26T07:40:35;95366.31;;;23.21;61.13
70072;BME280;57434;42.794;23.302;2023-06-26T07:41:38;95375.44;;;23.52;61.76
70072;BME280;57434;42.794;23.302;2023-06-26T07:42:40;95366.69;;;23.25;59.94
70072;BME280;57434;42.794;23.302;2023-06-26T07:43:42;95389.00;;;23.69;60.62
70072;BME280;57434;42.794;23.302;2023-06-26T07:44:44;95232.88;;;22.66;60.39
70072;BME280;57434;42.794;23.302;2023-06-26T07:45:46;95374.28;;;23.89;60.31
70072;BME280;57434;42.794;23.302;2023-06-26T07:46:48;95383.94;;;24.02;61.70
70072;BME280;57434;42.794;23.302;2023-06-26T07:47:49;95422.28;;;24.06;61.34
70072;BME280;57434;42.794;23.302;2023-06-26T07:48:52;95291.13;;;23.03;61.24
70072;BME280;57434;42.794;23.302;2023-06-26T07:49:54;95416.47;;;23.72;61.98
70072;BME280;57434;42.794;23.302;2023-06-26T07:50:56;95414.28;;;23.62;62.30
70072;BME280;57434;42.794;23.302;2023-06-26T07:51:58;95408.09;;;23.24;61.26
70072;BME280;57434;42.794;23.302;2023-06-26T07:53:00;95418.50;;;23.37;60.98
70072;BME280;57434;42.794;23.302;2023-06-26T07:54:02;95381.91;;;22.78;62.63
70072;BME280;57434;42.794;23.302;2023-06-26T07:55:04;95408.13;;;22.51;63.71
70072;BME280;57434;42.794;23.302;2023-06-26T07:56:06;95387.78;;;22.40;63.66
70072;BME280;57434;42.794;23.302;2023-06-26T07:57:08;95387.97;;;22.42;64.21
70072;BME280;57434;42.794;23.302;2023-06-26T07:58:10;95359.31;;;22.17;64.56
70072;BME280;57434;42.794;23.302;2023-06-26T07:59:12;95374.72;;;22.61;64.79
70072;BME280;57434;42.794;23.302;2023-06-26T08:00:14;95373.06;;;22.83;64.02
70072;BME280;57434;42.794;23.302;2023-06-26T08:01:16;95294.81;;;22.39;64.06
70072;BME280;57434;42.794;23.302;2023-06-26T08:02:18;95408.50;;;22.88;64.48
70072;BME280;57434;42.794;23.302;2023-06-26T08:03:19;95400.31;;;23.17;63.91
70072;BME280;57434;42.794;23.302;2023-06-26T08:04:35;95394.09;;;22.78;63.31
70072;BME280;57434;42.794;23.302;2023-06-26T08:05:37;95371.31;;;22.63;64.18
70072;BME280;57434;42.794;23.302;2023-06-26T08:06:39;95385.59;;;22.63;64.17
70072;BME280;57434;42.794;23.302;2023-06-26T08:07:41;95370.69;;;22.72;63.14
70072;BME280;57434;42.794;23.302;2023-06-26T08:08:42;95297.63;;;22.06;63.54
70072;BME280;57434;42.794;23.302;2023-06-26T08:09:44;95411.19;;;22.86;64.47
70072;BME280;57434;42.794;23.302;2023-06-26T08:10:46;95377.19;;;22.65;63.70
70072;BME280;57434;42.794;23.302;2023-06-26T08:11:48;95443.41;;;22.86;64.16
70072;BME280;57434;42.794;23.302;2023-06-26T08:12:50;95418.19;;;22.68;63.48
70072;BME280;57434;42.794;23.302;2023-06-26T08:13:52;95413.91;;;22.28;64.38
70072;BME280;57434;42.794;23.302;2023-06-26T08:14:53;95286.97;;;21.44;65.14
70072;BME280;57434;42.794;23.302;2023-06-26T08:15:55;95413.22;;;22.20;65.64
70072;BME280;57434;42.794;23.302;2023-06-26T08:16:57;95407.50;;;22.20;66.30
70072;BME280;57434;42.794;23.302;2023-06-26T08:17:59;95381.03;;;22.12;65.22
70072;BME280;57434;42.794;23.302;2023-06-26T08:19:01;95421.72;;;22.36;66.68
70072;BME280;57434;42.794;23.302;2023-06-26T08:20:03;95426.47;;;22.41;67.17
70072;BME280;57434;42.794;23.302;2023-06-26T08:21:05;95414.28;;;22.40;66.04
70072;BME280;57434;42.794;23.302;2023-06-26T08:22:08;95407.38;;;22.51;65.63
70072;BME280;57434;42.794;23.302;2023-06-26T08:23:10;95381.16;;;22.29;66.74
70072;BME280;57434;42.794;23.302;2023-06-26T08:24:12;95415.78;;;22.41;65.39
70072;BME280;57434;42.794;23.302;2023-06-26T08:25:14;95406.03;;;22.52;65.49
70072;BME280;57434;42.794;23.302;2023-06-26T08:26:16;95327.00;;;21.99;65.12
70072;BME280;57434;42.794;23.302;2023-06-26T08:27:18;95399.38;;;22.49;65.99
70072;BME280;57434;42.794;23.302;2023-06-26T08:28:20;95337.63;;;22.06;65.38
70072;BME280;57434;42.794;23.302;2023-06-26T08:29:21;95394.56;;;22.12;66.33
70072;BME280;57434;42.794;23.302;2023-06-26T08:30:24;95400.69;;;22.56;66.43
70072;BME280;57434;42.794;23.302;2023-06-26T08:31:26;95331.53;;;22.10;66.71
70072;BME280;57434;42.794;23.302;2023-06-26T08:32:27;95404.47;;;22.99;65.60
70072;BME280;57434;42.794;23.302;2023-06-26T08:33:29;95365.91;;;23.00;63.93
70072;BME280;57434;42.794;23.302;2023-06-26T08:34:31;95324.44;;;23.08;62.22
70072;BME280;57434;42.794;23.302;2023-06-26T08:35:33;95286.66;;;23.10;60.09
70072;BME280;57434;42.794;23.302;2023-06-26T08:36:35;95386.91;;;24.11;59.25
70072;BME280;57434;42.794;23.302;2023-06-26T08:37:37;95418.16;;;24.17;58.22
70072;BME280;57434;42.794;23.302;2023-06-26T08:38:39;95406.09;;;24.70;56.66
70072;BME280;57434;42.794;23.302;2023-06-26T08:39:41;95379.00;;;24.46;56.52
70072;BME280;57434;42.794;23.302;2023-06-26T08:40:43;95358.81;;;24.10;58.19
70072;BME280;57434;42.794;23.302;2023-06-26T08:41:45;95372.88;;;23.98;58.81
70072;BME280;57434;42.794;23.302;2023-06-26T08:42:46;95410.94;;;23.91;59.19
70072;BME280;57434;42.794;23.302;2023-06-26T08:43:49;95386.91;;;23.69;60.28
70072;BME280;57434;42.794;23.302;2023-06-26T08:44:50;95392.56;;;23.77;59.13
70072;BME280;57434;42.794;23.302;2023-06-26T08:46:02;95401.69;;;23.83;60.01
70072;BME280;57434;42.794;23.302;2023-06-26T08:47:04;95416.84;;;23.93;59.85
70072;BME280;57434;42.794;23.302;2023-06-26T08:48:09;95370.91;;;23.66;59.96
70072;BME280;57434;42.794;23.302;2023-06-26T08:49:20;95293.31;;;23.12;59.89
70072;BME280;57434;42.794;23.302;2023-06-26T08:50:23;95389.06;;;23.44;60.16
70072;BME280;57434;42.794;23.302;2023-06-26T08:51:28;95333.97;;;23.11;60.72
70072;BME280;57434;42.794;23.302;2023-06-26T08:52:33;95404.78;;;23.35;61.60
70072;BME280;57434;42.794;23.302;2023-06-26T08:53:50;95317.31;;;22.67;62.93
70072;BME280;57434;42.794;23.302;2023-06-26T08:54:58;95409.75;;;23.59;61.91
70072;BME280;57434;42.794;23.302;2023-06-26T08:56:01;95402.81;;;24.22;61.66
70072;BME280;57434;42.794;23.302;2023-06-26T08:57:04;95388.69;;;24.51;59.73
70072;BME280;57434;42.794;23.302;2023-06-26T08:58:07;95397.19;;;24.76;58.79
70072;BME280;57434;42.794;23.302;2023-06-26T08:59:09;95381.97;;;24.83;55.54
70072;BME280;57434;42.794;23.302;2023-06-26T09:00:12;95366.97;;;25.02;56.08
70072;BME280;57434;42.794;23.302;2023-06-26T09:01:14;95355.84;;;25.15;53.16
70072;BME280;57434;42.794;23.302;2023-06-26T09:02:16;95297.16;;;24.99;53.51
70072;BME280;57434;42.794;23.302;2023-06-26T09:03:18;95378.13;;;25.71;53.18
70072;BME280;57434;42.794;23.302;2023-06-26T09:04:21;95375.78;;;25.96;55.19
70072;BME280;57434;42.794;23.302;2023-06-26T09:05:23;95394.94;;;25.93;55.67
70072;BME280;57434;42.794;23.302;2023-06-26T09:06:24;95397.78;;;25.74;56.17
70072;BME280;57434;42.794;23.302;2023-06-26T09:07:26;95388.84;;;25.24;55.49
70072;BME280;57434;42.794;23.302;2023-06-26T09:08:28;95326.34;;;25.05;55.35
70072;BME280;57434;42.794;23.302;2023-06-26T09:09:30;95370.56;;;25.29;53.56
70072;BME280;57434;42.794;23.302;2023-06-26T09:10:32;95408.22;;;25.70;54.90
70072;BME280;57434;42.794;23.302;2023-06-26T09:11:34;95408.69;;;25.76;53.47
70072;BME280;57434;42.794;23.302;2023-06-26T09:12:37;95358.34;;;25.94;51.99
70072;BME280;57434;42.794;23.302;2023-06-26T09:13:39;95378.03;;;26.36;49.95
70072;BME280;57434;42.794;23.302;2023-06-26T09:14:41;95247.31;;;25.70;50.89
70072;BME280;57434;42.794;23.302;2023-06-26T09:15:44;95374.69;;;26.88;51.43
70072;BME280;57434;42.794;23.302;2023-06-26T09:16:46;95386.97;;;26.69;52.85
70072;BME280;57434;42.794;23.302;2023-06-26T09:17:49;95368.22;;;26.29;50.23
70072;BME280;57434;42.794;23.302;2023-06-26T09:18:52;95244.69;;;24.70;51.70
70072;BME280;57434;42.794;23.302;2023-06-26T09:19:54;95272.13;;;24.63;53.46
70072;BME280;57434;42.794;23.302;2023-06-26T09:20:55;95319.41;;;24.27;55.05
70072;BME280;57434;42.794;23.302;2023-06-26T09:21:57;95392.22;;;24.76;56.42
70072;BME280;57434;42.794;23.302;2023-06-26T09:23:00;95408.84;;;24.60;56.27
70072;BME280;57434;42.794;23.302;2023-06-26T09:24:02;95382.16;;;24.41;56.37
70072;BME280;57434;42.794;23.302;2023-06-26T09:25:05;95394.13;;;24.29;55.57
70072;BME280;57434;42.794;23.302;2023-06-26T09:26:07;95396.31;;;24.21;56.68
70072;BME280;57434;42.794;23.302;2023-06-26T09:27:09;95401.31;;;24.04;57.43
70072;BME280;57434;42.794;23.302;2023-06-26T09:28:12;95380.00;;;23.72;57.54
70072;BME280;57434;42.794;23.302;2023-06-26T09:29:14;95348.88;;;23.34;57.18
70072;BME280;57434;42.794;23.302;2023-06-26T09:30:17;95288.97;;;22.86;57.21
70072;BME280;57434;42.794;23.302;2023-06-26T09:31:20;95245.63;;;22.73;57.76
70072;BME280;57434;42.794;23.302;2023-06-26T09:32:41;95350.84;;;23.49;57.14
70072;BME280;57434;42.794;23.302;2023-06-26T09:33:43;95384.56;;;23.92;55.54
70072;BME280;57434;42.794;23.302;2023-06-26T09:34:45;95274.19;;;22.98;55.13
70072;BME280;57434;42.794;23.302;2023-06-26T09:35:47;95364.00;;;23.69;55.43
70072;BME280;57434;42.794;23.302;2023-06-26T09:36:53;95273.78;;;23.78;53.88
70072;BME280;57434;42.794;23.302;2023-06-26T09:37:54;95312.59;;;24.67;54.55
70072;BME280;57434;42.794;23.302;2023-06-26T09:38:56;95390.94;;;25.50;51.71
70072;BME280;57434;42.794;23.302;2023-06-26T09:39:58;95341.66;;;24.81;51.15
70072;BME280;57434;42.794;23.302;2023-06-26T09:41:01;95369.22;;;25.30;51.99
70072;BME280;57434;42.794;23.302;2023-06-26T09:42:04;95378.13;;;25.71;52.80
70072;BME280;57434;42.794;23.302;2023-06-26T09:43:12;95259.53;;;25.41;52.27
70072;BME280;57434;42.794;23.302;2023-06-26T09:44:15;95353.69;;;26.27;49.56
70072;BME280;57434;42.794;23.302;2023-06-26T09:45:19;95281.31;;;25.54;50.95
70072;BME280;57434;42.794;23.302;2023-06-26T09:46:28;95367.19;;;25.50;53.27
70072;BME280;57434;42.794;23.302;2023-06-26T09:47:33;95360.03;;;25.05;54.28
70072;BME280;57434;42.794;23.302;2023-06-26T09:48:35;95388.94;;;24.62;54.14
70072;BME280;57434;42.794;23.302;2023-06-26T09:49:41;95309.84;;;23.98;54.75
70072;BME280;57434;42.794;23.302;2023-06-26T09:50:43;95368.13;;;24.45;55.91
70072;BME280;57434;42.794;23.302;2023-06-26T09:52:02;95394.22;;;24.39;56.51
70072;BME280;57434;42.794;23.302;2023-06-26T09:53:11;95343.78;;;23.67;56.83
70072;BME280;57434;42.794;23.302;2023-06-26T09:54:16;95411.13;;;23.93;57.22
70072;BME280;57434;42.794;23.302;2023-06-26T09:55:19;95267.06;;;23.06;57.50
70072;BME280;57434;42.794;23.302;2023-06-26T09:56:21;95355.06;;;23.65;57.96
70072;BME280;57434;42.794;23.302;2023-06-26T09:57:23;95415.25;;;23.82;57.50
70072;BME280;57434;42.794;23.302;2023-06-26T09:58:27;95362.69;;;23.45;58.25
70072;BME280;57434;42.794;23.302;2023-06-26T09:59:29;95399.22;;;23.79;59.10
70072;BME280;57434;42.794;23.302;2023-06-26T10:00:32;95248.81;;;22.77;57.63
70072;BME280;57434;42.794;23.302;2023-06-26T10:01:40;95422.44;;;23.66;58.10
70072;BME280;57434;42.794;23.302;2023-06-26T10:02:42;95369.44;;;23.40;58.78
70072;BME280;57434;42.794;23.302;2023-06-26T10:03:44;95411.28;;;23.78;58.05
70072;BME280;57434;42.794;23.302;2023-06-26T10:04:46;95370.22;;;23.58;55.80
70072;BME280;57434;42.794;23.302;2023-06-26T10:05:48;95367.78;;;23.54;56.27
70072;BME280;57434;42.794;23.302;2023-06-26T10:06:54;95396.31;;;23.87;57.54
70072;BME280;57434;42.794;23.302;2023-06-26T10:07:58;95368.47;;;23.80;57.77
70072;BME280;57434;42.794;23.302;2023-06-26T10:09:01;95398.25;;;24.02;57.88
70072;BME280;57434;42.794;23.302;2023-06-26T10:10:08;95377.41;;;23.84;56.80
70072;BME280;57434;42.794;23.302;2023-06-26T10:11:14;95391.63;;;23.57;56.61
70072;BME280;57434;42.794;23.302;2023-06-26T10:12:37;95382.69;;;23.70;56.15
70072;BME280;57434;42.794;23.302;2023-06-26T10:13:42;95355.81;;;23.48;56.78
70072;BME280;57434;42.794;23.302;2023-06-26T10:14:45;95390.00;;;23.63;55.92
70072;BME280;57434;42.794;23.302;2023-06-26T10:15:50;95395.84;;;23.56;56.46
70072;BME280;57434;42.794;23.302;2023-06-26T10:16:57;95269.88;;;22.64;57.32
70072;BME280;57434;42.794;23.302;2023-06-26T10:17:59;95418.94;;;23.75;57.53
70072;BME280;57434;42.794;23.302;2023-06-26T10:19:05;95402.34;;;23.91;56.66
70072;BME280;57434;42.794;23.302;2023-06-26T10:20:08;95365.31;;;23.51;56.50
70072;BME280;57434;42.794;23.302;2023-06-26T10:21:11;95379.34;;;23.14;57.18
70072;BME280;57434;42.794;23.302;2023-06-26T10:22:17;95401.16;;;23.35;58.77
70072;BME280;57434;42.794;23.302;2023-06-26T10:23:22;95398.06;;;23.08;59.13
70072;BME280;57434;42.794;23.302;2023-06-26T10:24:26;95403.03;;;23.07;59.76
70072;BME280;57434;42.794;23.302;2023-06-26T10:25:30;95424.53;;;22.91;61.58
70072;BME280;57434;42.794;23.302;2023-06-26T10:26:36;95340.97;;;22.68;61.26
70072;BME280;57434;42.794;23.302;2023-06-26T10:27:43;95395.69;;;23.21;60.68
70072;BME280;57434;42.794;23.302;2023-06-26T10:28:47;95425.47;;;23.26;60.14
70072;BME280;57434;42.794;23.302;2023-06-26T10:29:55;95398.03;;;23.15;60.60
70072;BME280;57434;42.794;23.302;2023-06-26T10:31:00;95371.22;;;22.78;59.00
70072;BME280;57434;42.794;23.302;2023-06-26T10:32:04;95405.63;;;23.20;59.89
70072;BME280;57434;42.794;23.302;2023-06-26T10:33:08;95410.34;;;23.33;59.89
70072;BME280;57434;42.794;23.302;2023-06-26T10:34:11;95323.81;;;22.92;59.96
70072;BME280;57434;42.794;23.302;2023-06-26T10:35:14;95394.31;;;23.55;59.59
70072;BME280;57434;42.794;23.302;2023-06-26T10:36:18;95276.00;;;22.85;58.41
70072;BME280;57434;42.794;23.302;2023-06-26T10:37:20;95304.34;;;23.16;58.62
70072;BME280;57434;42.794;23.302;2023-06-26T10:38:31;95331.22;;;23.20;57.79
70072;BME280;57434;42.794;23.302;2023-06-26T10:39:52;95424.38;;;23.63;58.75
70072;BME280;57434;42.794;23.302;2023-06-26T10:40:54;95274.88;;;22.56;59.76
70072;BME280;57434;42.794;23.302;2023-06-26T10:42:08;95400.31;;;23.67;59.81
70072;BME280;57434;42.794;23.302;2023-06-26T10:43:12;95385.50;;;23.60;59.31
70072;BME280;57434;42.794;23.302;2023-06-26T10:44:18;95404.44;;;23.73;59.16
70072;BME280;57434;42.794;23.302;2023-06-26T10:45:20;95405.56;;;23.78;59.72
70072;BME280;57434;42.794;23.302;2023-06-26T10:46:22;95273.03;;;23.01;59.56
70072;BME280;57434;42.794;23.302;2023-06-26T10:47:32;95300.66;;;23.23;58.87
70072;BME280;57434;42.794;23.302;2023-06-26T10:48:57;95345.47;;;23.53;58.41
70072;BME280;57434;42.794;23.302;2023-06-26T10:50:22;95405.59;;;24.12;59.28
70072;BME280;57434;42.794;23.302;2023-06-26T10:51:26;95352.78;;;23.63;59.50
70072;BME280;57434;42.794;23.302;2023-06-26T10:52:28;95375.38;;;23.77;59.31
70072;BME280;57434;42.794;23.302;2023-06-26T10:53:30;95389.16;;;23.95;59.05
70072;BME280;57434;42.794;23.302;2023-06-26T10:54:32;95377.47;;;23.59;59.81
70072;BME280;57434;42.794;23.302;2023-06-26T10:55:35;95360.59;;;23.46;59.69
70072;BME280;57434;42.794;23.302;2023-06-26T10:56:44;95390.88;;;23.91;59.42
70072;BME280;57434;42.794;23.302;2023-06-26T10:57:47;95395.75;;;23.63;59.97
70072;BME280;57434;42.794;23.302;2023-06-26T10:58:49;95384.75;;;23.77;59.59
70072;BME280;57434;42.794;23.302;2023-06-26T11:00:11;95292.47;;;23.44;59.16
70072;BME280;57434;42.794;23.302;2023-06-26T11:01:26;95369.59;;;24.02;59.03
70072;BME280;57434;42.794;23.302;2023-06-26T11:02:47;95300.00;;;23.57;59.06
70072;BME280;57434;42.794;23.302;2023-06-26T11:04:04;95377.75;;;24.22;60.59
70072;BME280;57434;42.794;23.302;2023-06-26T11:05:07;95383.16;;;24.36;59.64
70072;BME280;57434;42.794;23.302;2023-06-26T11:06:13;95225.63;;;23.32;57.20
70072;BME280;57434;42.794;23.302;2023-06-26T11:07:25;95376.41;;;24.41;56.50
70072;BME280;57434;42.794;23.302;2023-06-26T11:08:49;95376.38;;;24.58;57.39
70072;BME280;57434;42.794;23.302;2023-06-26T11:11:06;95340.75;;;24.34;57.59
70072;BME280;57434;42.794;23.302;2023-06-26T11:12:08;95381.50;;;24.59;57.04
70072;BME280;57434;42.794;23.302;2023-06-26T11:13:11;95378.16;;;24.53;56.95
70072;BME280;57434;42.794;23.302;2023-06-26T11:14:13;95373.84;;;24.62;55.72
70072;BME280;57434;42.794;23.302;2023-06-26T11:15:17;95334.53;;;24.55;54.26
70072;BME280;57434;42.794;23.302;2023-06-26T11:16:20;95371.97;;;24.74;53.59
70072;BME280;57434;42.794;23.302;2023-06-26T11:17:24;95369.59;;;24.80;51.64
70072;BME280;57434;42.794;23.302;2023-06-26T11:18:27;95361.41;;;24.77;52.82
70072;BME280;57434;42.794;23.302;2023-06-26T11:19:29;95360.03;;;25.05;52.87
70072;BME280;57434;42.794;23.302;2023-06-26T11:20:32;95368.63;;;25.78;52.24
70072;BME280;57434;42.794;23.302;2023-06-26T11:21:34;95364.91;;;26.04;50.80
70072;BME280;57434;42.794;23.302;2023-06-26T11:22:37;95341.56;;;26.10;48.50
70072;BME280;57434;42.794;23.302;2023-06-26T11:23:40;95369.03;;;27.00;50.41
70072;BME280;57434;42.794;23.302;2023-06-26T11:24:43;95219.50;;;25.62;49.99
70072;BME280;57434;42.794;23.302;2023-06-26T11:25:45;95362.28;;;26.56;48.26
70072;BME280;57434;42.794;23.302;2023-06-26T11:26:47;95361.56;;;27.16;48.17
70072;BME280;57434;42.794;23.302;2023-06-26T11:27:49;95334.38;;;27.19;45.85
70072;BME280;57434;42.794;23.302;2023-06-26T11:28:55;95304.66;;;26.25;47.92
70072;BME280;57434;42.794;23.302;2023-06-26T11:29:57;95346.09;;;26.42;48.40
70072;BME280;57434;42.794;23.302;2023-06-26T11:30:59;95363.53;;;26.05;48.83
70072;BME280;57434;42.794;23.302;2023-06-26T11:32:02;95240.00;;;25.30;48.56
70072;BME280;57434;42.794;23.302;2023-06-26T11:33:07;95365.44;;;25.83;49.81
70072;BME280;57434;42.794;23.302;2023-06-26T11:34:11;95214.00;;;24.36;50.90
70072;BME280;57434;42.794;23.302;2023-06-26T11:35:22;95242.03;;;24.91;50.96
70072;BME280;57434;42.794;23.302;2023-06-26T11:36:25;95370.34;;;26.19;50.29
70072;BME280;57434;42.794;23.302;2023-06-26T11:37:27;95363.38;;;26.32;49.82
70072;BME280;57434;42.794;23.302;2023-06-26T11:38:37;95220.69;;;26.08;48.39
70072;BME280;57434;42.794;23.302;2023-06-26T11:39:38;95344.66;;;27.41;47.54
70072;BME280;57434;42.794;23.302;2023-06-26T11:40:40;95359.75;;;27.51;47.42
70072;BME280;57434;42.794;23.302;2023-06-26T11:41:45;95338.88;;;27.41;46.03
70072;BME280;57434;42.794;23.302;2023-06-26T11:42:47;95359.41;;;27.26;47.91
70072;BME280;57434;42.794;23.302;2023-06-26T11:43:49;95369.34;;;26.94;48.33
70072;BME280;57434;42.794;23.302;2023-06-26T11:44:51;95364.25;;;26.73;47.97
70072;BME280;57434;42.794;23.302;2023-06-26T11:45:55;95326.91;;;26.35;48.98
70072;BME280;57434;42.794;23.302;2023-06-26T11:46:57;95319.16;;;25.70;48.62
70072;BME280;57434;42.794;23.302;2023-06-26T11:48:00;95362.28;;;26.08;49.28
70072;BME280;57434;42.794;23.302;2023-06-26T11:49:03;95368.94;;;26.69;47.48
70072;BME280;57434;42.794;23.302;2023-06-26T11:50:06;95365.59;;;26.82;46.26
70072;BME280;57434;42.794;23.302;2023-06-26T11:51:08;95213.88;;;25.93;47.67
70072;BME280;57434;42.794;23.302;2023-06-26T11:52:10;95353.06;;;27.49;46.08
70072;BME280;57434;42.794;23.302;2023-06-26T11:53:14;95308.88;;;27.35;45.89
70072;BME280;57434;42.794;23.302;2023-06-26T11:54:26;95346.03;;;27.92;45.27
70072;BME280;57434;42.794;23.302;2023-06-26T11:55:40;95317.13;;;27.81;44.81
70072;BME280;57434;42.794;23.302;2023-06-26T11:56:42;95319.97;;;27.59;47.05
70072;BME280;57434;42.794;23.302;2023-06-26T11:57:48;95353.16;;;27.91;46.81
70072;BME280;57434;42.794;23.302;2023-06-26T11:59:07;95232.00;;;26.75;46.76
70072;BME280;57434;42.794;23.302;2023-06-26T12:00:16;95277.19;;;26.63;48.42
70072;BME280;57434;42.794;23.302;2023-06-26T12:01:18;95369.63;;;27.08;49.04
70072;BME280;57434;42.794;23.302;2023-06-26T12:02:21;95347.78;;;27.14;47.62
70072;BME280;57434;42.794;23.302;2023-06-26T12:03:23;95368.66;;;26.36;48.97
70072;BME280;57434;42.794;23.302;2023-06-26T12:04:28;94946.13;;;23.63;50.57
70072;BME280;57434;42.794;23.302;2023-06-26T12:05:30;95335.84;;;26.00;49.92
70072;BME280;57434;42.794;23.302;2023-06-26T12:06:34;95356.22;;;25.85;51.55
70072;BME280;57434;42.794;23.302;2023-06-26T12:07:37;95362.09;;;25.87;51.87